Main page
METAR-TAF:

METAR-TAF

Airports :

Base Aérea de Alcantarilla

Murcia, Spain

latitude: 37-57N, longitude: 001-14W, elevation: 75 m

Current weather observation

The report was made 9 hours and 6 minutes ago, at 18:00 UTC
Wind 7 kt from the Southwest, varying between South and West
Temperature 34°C
Humidity 36%
Pressure 1005 hPa
Visibility 10 km or more
no clouds below 1500 m and no cumulonimbus

METAR: LERI 141800Z 22007KT 190V260 CAVOK 34/17 Q1005 NOSIG

Time: 05:06 (03:06 UTC)

Forecast

The report was made 10 hours and 6 minutes ago, at 17:00 UTC
Forecast valid from 14 at 18 UTC to 15 at 18 UTC
Wind 10 kt from the South/Southwest
Visibility 10 km or more
no clouds below 1500 m and no cumulonimbus
Becoming
from 14 at 19 UTC to 14 at 21 UTC
Wind 2 kt from variable directions

TAF: LERI 141700Z 1418/1518 20010KT CAVOK TX38/1514Z TN21/1505Z BECMG 1419/1421 VRB02KT

Weather observations and forecasts of more than 4000 airports (METAR and TAF reports).

The available stations are represented by yellow and red dots on the map.

Hover mouse over dot to see the name of the station.

Then click to see weather observations and forecasts.

To change the map : click on the green buttons with a black cross to zoom in, on the green button with a dash to zoom out, or on the green arrows for adjacent maps.


METAR-TAF: